Ault, Minnesota
Current Conditions -  °F | °C
As of 11:34 AM on Saturday 25 Oct 2014 (Local Time) from KTWM Reporting Station
Clear Clear  
Wind Chill: 57°   Ceiling: Unl
Heat Index: 57°   Visibility: 10mi
Dew Point: 18°   Wind: 16mph
Humidity: 21%   Direction: 280°W
Pressure: 29.85"   Gusts: 30mph
Location:  47.3998°N, 91.9141°W
Report Text: KTWM 251634Z AUTO 28014G26KT 10SM CLR 14/M08 A2985 RMK AO2
Loading
Personal Weather Stations






























Interactive Weather Map
Tropical Storm Tracking
New forecast layout! Learn more

10-Day Weather Forecast

Advertisements
Track Severe Weather on mobile